Time;durP1;ratioP1;P1;durP2;ratioP2;P2;SDS_P1;SDS_P2;PMS_P1;PMS_P2;Temp;Humidity;BMP_temperature;BMP_pressure;BME280_temperature;BME280_humidity;BME280_pressure;Samples;Min_cycle;Max_cycle;Signal;HPM_P1;HPM_P2
2023/12/19 00:01:18;;;;;;;26.70;15.60;;;;;;;4.71;77.18;101864.91;4938590;29;20296;-78
2023/12/19 00:03:46;;;;;;;26.37;14.50;;;;;;;4.66;77.15;101853.78;4931213;29;20216;-77
2023/12/19 00:06:14;;;;;;;23.70;14.03;;;;;;;4.62;77.11;101839.09;4925253;29;20230;-76
2023/12/19 00:08:42;;;;;;;29.70;15.33;;;;;;;4.59;77.18;101844.50;4939810;29;20246;-77
2023/12/19 00:11:13;;;;;;;26.07;15.03;;;;;;;4.52;77.09;101869.38;4942919;29;20304;-78
2023/12/19 00:13:41;;;;;;;26.13;15.50;;;;;;;4.46;77.15;101895.97;4943441;29;20228;-78
2023/12/19 00:16:11;;;;;;;24.73;13.93;;;;;;;4.36;77.10;101886.81;4945465;29;20211;-77
2023/12/19 00:18:40;;;;;;;27.80;14.67;;;;;;;4.30;77.46;101880.09;4945266;29;20311;-76
2023/12/19 00:21:08;;;;;;;26.63;15.30;;;;;;;4.29;77.45;101853.91;4943907;29;20291;-78
2023/12/19 00:23:36;;;;;;;28.80;15.17;;;;;;;4.37;77.70;101849.97;4946935;29;20206;-76
2023/12/19 00:26:05;;;;;;;24.73;14.23;;;;;;;4.44;77.54;101838.25;4945807;29;20211;-76
2023/12/19 00:28:32;;;;;;;27.50;14.37;;;;;;;4.47;77.75;101834.63;4946117;28;20195;-77
2023/12/19 00:31:00;;;;;;;26.93;15.13;;;;;;;4.48;77.96;101831.06;4947622;28;20227;-77
2023/12/19 00:33:34;;;;;;;26.80;14.07;;;;;;;4.55;78.00;101821.94;4947360;28;20195;-76
2023/12/19 00:36:04;;;;;;;26.80;14.93;;;;;;;4.62;77.66;101839.09;4949225;28;20204;-77
2023/12/19 00:38:31;;;;;;;25.40;14.03;;;;;;;4.63;77.58;101829.44;4948927;28;20237;-77
2023/12/19 00:41:01;;;;;;;27.27;14.97;;;;;;;4.61;77.60;101853.16;4947781;28;20230;-77
2023/12/19 00:43:29;;;;;;;30.93;15.00;;;;;;;4.60;77.47;101850.59;4948677;28;20219;-77
2023/12/19 00:45:57;;;;;;;27.20;15.73;;;;;;;4.58;77.65;101855.94;4949121;28;20207;-77
2023/12/19 00:48:25;;;;;;;25.93;14.53;;;;;;;4.54;77.72;101852.63;4951345;28;20192;-77
2023/12/19 00:50:54;;;;;;;25.37;14.83;;;;;;;4.49;77.71;101869.53;4949372;28;20212;-77
2023/12/19 00:53:25;;;;;;;27.13;14.47;;;;;;;4.43;78.07;101880.34;4949769;28;20196;-77
2023/12/19 00:55:52;;;;;;;24.80;13.70;;;;;;;4.38;78.30;101895.47;4948437;28;20233;-77
2023/12/19 00:58:20;;;;;;;25.63;14.63;;;;;;;4.36;78.56;101884.19;4948764;28;20193;-77
2023/12/19 01:00:48;;;;;;;25.63;14.53;;;;;;;4.39;78.43;101873.56;4950170;28;20220;-77
2023/12/19 01:03:16;;;;;;;26.33;14.90;;;;;;;4.43;78.35;101869.84;4949481;28;20200;-76
2023/12/19 01:05:44;;;;;;;24.13;13.87;;;;;;;4.46;78.09;101869.69;4953711;28;20215;-78
2023/12/19 01:08:12;;;;;;;23.97;14.10;;;;;;;4.41;78.01;101861.16;4951106;28;20227;-76
2023/12/19 01:10:41;;;;;;;27.50;14.33;;;;;;;4.34;78.36;101859.78;4951540;28;20279;-76
2023/12/19 01:13:09;;;;;;;26.37;14.63;;;;;;;4.42;78.38;101853.22;4949965;28;20372;-76
2023/12/19 01:15:37;;;;;;;26.63;15.30;;;;;;;4.50;78.12;101860.72;4955346;28;20200;-77
2023/12/19 01:18:05;;;;;;;29.33;14.37;;;;;;;4.56;77.66;101852.56;4947187;29;20210;-77
2023/12/19 01:20:32;;;;;;;26.00;13.20;;;;;;;4.59;77.72;101827.88;4951745;28;20267;-76
2023/12/19 01:23:00;;;;;;;24.10;14.00;;;;;;;4.59;77.66;101844.50;4950364;28;20208;-77
2023/12/19 01:25:28;;;;;;;25.50;13.73;;;;;;;4.59;77.81;101844.50;4951928;28;20208;-78
2023/12/19 01:28:06;;;;;;;23.73;13.73;;;;;;;4.63;77.74;101835.56;4953352;28;20207;-77
2023/12/19 01:30:39;;;;;;;27.73;14.97;;;;;;;4.59;77.96;101843.66;4947919;29;20227;-77
2023/12/19 01:33:08;;;;;;;28.73;14.17;;;;;;;4.57;78.14;101842.91;4946475;29;20220;-77
2023/12/19 01:35:36;;;;;;;25.33;13.33;;;;;;;4.67;78.06;101854.63;4950425;29;20255;-77
2023/12/19 01:38:04;;;;;;;23.77;13.53;;;;;;;4.75;77.82;101850.69;4941608;29;20216;-77
2023/12/19 01:40:32;;;;;;;23.13;13.13;;;;;;;4.75;77.56;101845.44;4942205;29;20275;-78
2023/12/19 01:43:02;;;;;;;24.07;12.30;;;;;;;4.77;77.23;101850.63;4933986;29;20267;-77
2023/12/19 01:45:30;;;;;;;26.10;14.00;;;;;;;4.76;77.26;101862.91;4944286;29;20187;-77
2023/12/19 01:47:58;;;;;;;22.57;11.80;;;;;;;4.73;77.38;101873.59;4952697;28;20233;-76
2023/12/19 01:50:29;;;;;;;19.47;10.97;;;;;;;4.79;77.68;101878.53;4949479;28;20228;-77
2023/12/19 01:53:02;;;;;;;21.20;10.63;;;;;;;4.87;77.53;101876.34;4950187;29;20299;-77
2023/12/19 01:55:30;;;;;;;22.77;11.47;;;;;;;4.91;77.16;101866.56;4948581;28;20188;-77
2023/12/19 01:58:09;;;;;;;20.13;10.83;;;;;;;4.92;77.07;101866.44;4950148;28;20191;-77
2023/12/19 02:00:37;;;;;;;20.80;11.37;;;;;;;4.95;76.97;101877.75;4953209;28;20291;-76
2023/12/19 02:03:05;;;;;;;20.53;10.80;;;;;;;4.98;77.01;101877.59;4950556;28;20509;-77
2023/12/19 02:05:38;;;;;;;22.33;11.43;;;;;;;4.99;76.99;101863.53;4951339;28;20198;-77
2023/12/19 02:08:06;;;;;;;18.27;10.60;;;;;;;5.01;76.54;101848.53;4952750;28;20271;-77
2023/12/19 02:10:34;;;;;;;19.30;10.77;;;;;;;4.96;76.35;101850.53;4950309;28;20229;-78
2023/12/19 02:13:02;;;;;;;20.07;11.83;;;;;;;4.92;76.31;101841.97;4952506;28;20241;-77
2023/12/19 02:15:31;;;;;;;20.17;11.10;;;;;;;4.91;76.38;101848.16;4941986;29;20200;-78
2023/12/19 02:18:13;;;;;;;20.27;10.60;;;;;;;4.90;76.26;101849.94;4938991;29;20494;-77
2023/12/19 02:20:41;;;;;;;19.70;10.17;;;;;;;4.88;75.54;101851.78;4947659;29;20196;-78
2023/12/19 02:23:11;;;;;;;18.93;10.33;;;;;;;4.81;75.82;101855.66;4949496;28;20236;-77
2023/12/19 02:25:39;;;;;;;18.00;10.47;;;;;;;4.78;76.04;101847.06;4953277;28;20184;-78
2023/12/19 02:28:08;;;;;;;22.30;11.07;;;;;;;4.76;76.03;101846.28;4938939;29;20668;-77
2023/12/19 02:30:36;;;;;;;22.90;11.07;;;;;;;4.68;75.96;101837.94;4926585;29;20244;-78
2023/12/19 02:33:08;;;;;;;19.43;10.53;;;;;;;4.65;75.97;101830.22;4924011;29;20220;-77
2023/12/19 02:35:38;;;;;;;21.87;11.80;;;;;;;4.60;76.26;101821.72;4926371;29;20287;-77
2023/12/19 02:38:06;;;;;;;22.83;11.50;;;;;;;4.56;76.19;101844.69;4927684;29;20249;-76
2023/12/19 02:40:35;;;;;;;19.80;10.07;;;;;;;4.57;76.52;101845.53;4928060;29;20227;-77
2023/12/19 02:43:04;;;;;;;26.83;10.97;;;;;;;4.63;76.35;101864.47;4930130;29;20685;-77
2023/12/19 02:45:33;;;;;;;19.70;11.07;;;;;;;4.59;76.17;101855.00;4931091;29;20208;-76
2023/12/19 02:48:01;;;;;;;20.33;11.30;;;;;;;4.55;76.58;101864.00;4931311;29;20292;-77
2023/12/19 02:50:29;;;;;;;19.90;12.00;;;;;;;4.53;76.85;101844.81;4928257;29;20227;-77
2023/12/19 02:52:57;;;;;;;23.27;12.43;;;;;;;4.51;76.98;101836.16;4925441;29;20240;-77
2023/12/19 02:55:25;;;;;;;23.83;11.57;;;;;;;4.50;77.33;101829.19;4928333;29;20286;-77
2023/12/19 02:57:54;;;;;;;21.70;10.93;;;;;;;4.53;76.87;101842.19;4931553;29;20568;-77
2023/12/19 03:00:21;;;;;;;21.50;10.73;;;;;;;4.55;76.76;101842.97;4935095;29;20205;-76
2023/12/19 03:02:49;;;;;;;21.13;11.10;;;;;;;4.56;76.64;101835.94;4933737;29;20219;-76
2023/12/19 03:05:19;;;;;;;21.80;11.47;;;;;;;4.53;76.55;101831.69;4929466;29;20208;-77
2023/12/19 03:07:47;;;;;;;20.60;11.40;;;;;;;4.52;76.55;101843.97;4929360;29;20319;-77
2023/12/19 03:10:16;;;;;;;21.10;11.63;;;;;;;4.51;76.56;101837.00;4928271;29;20219;-77
2023/12/19 03:12:44;;;;;;;20.43;10.77;;;;;;;4.48;76.50;101836.31;4928209;29;20228;-77
2023/12/19 03:15:14;;;;;;;19.43;10.73;;;;;;;4.48;76.60;101831.06;4932098;29;20550;-77
2023/12/19 03:17:42;;;;;;;18.53;10.53;;;;;;;4.49;76.40;101827.50;4922781;29;20284;-77
2023/12/19 03:20:10;;;;;;;20.40;10.33;;;;;;;4.48;76.33;101820.56;4932576;29;20212;-77
2023/12/19 03:22:38;;;;;;;17.40;9.43;;;;;;;4.47;76.06;101808.34;4927336;29;20216;-77
2023/12/19 03:25:06;;;;;;;20.90;9.47;;;;;;;4.48;76.03;101807.44;4927289;29;20208;-77
2023/12/19 03:27:34;;;;;;;20.43;10.90;;;;;;;4.45;75.85;101799.69;4929932;29;20637;-77
2023/12/19 03:30:02;;;;;;;20.80;10.50;;;;;;;4.46;75.67;101793.50;4928315;29;20212;-77
2023/12/19 03:32:31;;;;;;;21.20;10.13;;;;;;;4.50;75.28;101787.16;4926749;29;20228;-76
2023/12/19 03:34:59;;;;;;;18.30;9.90;;;;;;;4.48;75.10;101773.28;4927235;29;20204;-77
2023/12/19 03:37:27;;;;;;;21.33;11.40;;;;;;;4.43;74.89;101765.63;4929160;29;20310;-77
2023/12/19 03:39:55;;;;;;;22.00;10.37;;;;;;;4.41;74.93;101763.97;4927358;29;20220;-77
2023/12/19 03:42:22;;;;;;;20.93;11.00;;;;;;;4.36;75.05;101764.22;4927028;29;20220;-77
2023/12/19 03:44:50;;;;;;;21.93;10.30;;;;;;;4.31;75.07;101773.28;4930159;29;20656;-78
2023/12/19 03:47:18;;;;;;;22.57;10.83;;;;;;;4.29;75.15;101783.00;4923400;29;20237;-78
2023/12/19 03:49:47;;;;;;;24.00;11.10;;;;;;;4.31;75.04;101763.59;4930586;29;20215;-77
2023/12/19 03:52:15;;;;;;;22.03;11.60;;;;;;;4.28;75.21;101776.03;4933348;29;20200;-77
2023/12/19 03:54:43;;;;;;;22.60;10.93;;;;;;;4.27;75.33;101795.34;4930742;29;21012;-78
2023/12/19 03:57:11;;;;;;;25.10;11.27;;;;;;;4.21;75.31;101790.41;4927726;29;20264;-78
2023/12/19 03:59:42;;;;;;;24.17;11.80;;;;;;;4.18;75.64;101780.91;4924952;29;20255;-78
2023/12/19 04:02:10;;;;;;;19.97;11.23;;;;;;;4.14;75.59;101774.09;4929372;29;20208;-78
2023/12/19 04:04:37;;;;;;;20.77;11.57;;;;;;;4.21;75.47;101751.88;4927934;29;20216;-78
2023/12/19 04:07:06;;;;;;;25.30;11.17;;;;;;;4.25;74.56;101735.03;4925577;29;21211;-77
2023/12/19 04:09:34;;;;;;;20.00;9.97;;;;;;;4.28;74.70;101745.38;4924807;29;20311;-77
2023/12/19 04:12:03;;;;;;;21.63;10.57;;;;;;;4.30;74.46;101745.31;4928534;29;20208;-77
2023/12/19 04:14:32;;;;;;;21.03;10.43;;;;;;;4.25;74.20;101734.16;4929337;29;20239;-77
2023/12/19 04:17:00;;;;;;;19.53;10.13;;;;;;;4.20;74.21;101754.56;4924161;29;20207;-76
2023/12/19 04:19:28;;;;;;;19.80;10.60;;;;;;;4.25;74.36;101763.06;4927656;29;20271;-77
2023/12/19 04:21:57;;;;;;;22.03;10.27;;;;;;;4.26;74.18;101749.00;4924472;29;20220;-77
2023/12/19 04:24:27;;;;;;;22.43;11.73;;;;;;;4.31;74.35;101744.41;4925698;29;20686;-77
2023/12/19 04:26:55;;;;;;;19.73;10.10;;;;;;;4.27;74.38;101753.34;4924470;29;20212;-76
2023/12/19 04:29:23;;;;;;;21.37;11.13;;;;;;;4.18;74.59;101764.28;4926800;29;20260;-77
2023/12/19 04:31:51;;;;;;;21.43;11.33;;;;;;;4.13;75.17;101769.78;4926676;29;20273;-77
2023/12/19 04:34:19;;;;;;;19.33;10.10;;;;;;;4.18;75.25;101759.91;4922335;29;22804;-77
2023/12/19 04:36:47;;;;;;;21.20;10.63;;;;;;;4.21;74.91;101787.78;4926199;29;20259;-77
2023/12/19 04:39:15;;;;;;;22.27;11.57;;;;;;;4.15;75.20;101787.13;4929548;29;20306;-77
2023/12/19 04:41:44;;;;;;;19.70;10.23;;;;;;;4.19;75.34;101779.13;4928167;29;20223;-76
2023/12/19 04:44:12;;;;;;;24.60;12.07;;;;;;;4.28;75.06;101778.66;4932059;29;20633;-78
2023/12/19 04:46:42;;;;;;;24.73;12.53;;;;;;;4.36;74.74;101789.66;4928769;29;20809;-77
2023/12/19 04:49:10;;;;;;;24.50;12.37;;;;;;;4.36;74.62;101785.25;4931045;29;20215;-77
2023/12/19 04:51:38;;;;;;;24.80;11.33;;;;;;;4.43;74.47;101785.78;4930977;29;20646;-77
2023/12/19 04:54:08;;;;;;;21.10;12.00;;;;;;;4.48;74.16;101789.03;4924071;29;20232;-78
2023/12/19 04:56:36;;;;;;;21.57;11.50;;;;;;;4.51;74.17;101778.38;4927874;29;20208;-78
2023/12/19 04:59:07;;;;;;;21.70;11.10;;;;;;;4.48;73.99;101779.38;4913173;29;20315;-78
2023/12/19 05:01:40;;;;;;;24.37;11.97;;;;;;;4.42;73.93;101763.06;4934628;29;20222;-79
2023/12/19 05:04:09;;;;;;;23.63;11.57;;;;;;;4.34;73.55;101755.56;4931886;29;20287;-78
2023/12/19 05:06:37;;;;;;;23.03;11.50;;;;;;;4.33;73.38;101759.13;4930715;29;20224;-78
2023/12/19 05:09:05;;;;;;;20.17;10.23;;;;;;;4.25;72.61;101769.16;4932235;29;21643;-78
2023/12/19 05:11:36;;;;;;;19.63;10.33;;;;;;;4.20;72.61;101757.19;4929371;29;20291;-78
2023/12/19 05:14:03;;;;;;;20.13;9.57;;;;;;;4.07;72.75;101751.69;4928904;29;20337;-77
2023/12/19 05:16:33;;;;;;;19.00;9.30;;;;;;;4.03;73.21;101758.03;4926396;29;20275;-78
2023/12/19 05:18:59;;;;;;;20.30;9.20;;;;;;;3.96;73.22;101765.34;4930187;29;20208;-78
2023/12/19 05:21:27;;;;;;;16.77;8.87;;;;;;;3.96;73.61;101765.34;4930182;29;20219;-77
2023/12/19 05:23:55;;;;;;;20.47;10.13;;;;;;;3.99;73.41;101775.69;4913466;29;20303;-78
2023/12/19 05:26:23;;;;;;;18.17;9.27;;;;;;;3.99;73.20;101770.44;4930927;29;20650;-78
2023/12/19 05:28:51;;;;;;;20.77;10.17;;;;;;;3.98;73.21;101771.38;4929605;29;20233;-77
2023/12/19 05:31:19;;;;;;;16.40;8.60;;;;;;;3.95;73.17;101779.41;4928408;29;20243;-77
2023/12/19 05:33:48;;;;;;;15.73;8.13;;;;;;;3.97;73.25;101792.44;4929577;29;20234;-77
2023/12/19 05:36:16;;;;;;;20.10;9.43;;;;;;;4.04;73.06;101786.84;4928086;29;20299;-77
2023/12/19 05:38:44;;;;;;;18.83;9.73;;;;;;;4.07;72.75;101784.03;4926189;29;20312;-78
2023/12/19 05:41:14;;;;;;;18.67;9.10;;;;;;;4.05;72.43;101785.88;4928106;29;20223;-77
2023/12/19 05:43:42;;;;;;;18.23;9.43;;;;;;;4.01;72.46;101788.75;4926145;29;20212;-77
2023/12/19 05:46:10;;;;;;;18.33;9.87;;;;;;;3.98;72.84;101797.63;4929003;29;20267;-78
2023/12/19 05:48:38;;;;;;;15.03;7.83;;;;;;;4.01;72.67;101797.47;4926982;29;20246;-77
2023/12/19 05:51:09;;;;;;;17.73;8.87;;;;;;;4.00;72.42;101803.66;4928776;29;20209;-77
2023/12/19 05:53:38;;;;;;;17.60;9.10;;;;;;;4.01;72.68;101812.38;4927692;29;20295;-77
2023/12/19 05:56:06;;;;;;;18.20;9.30;;;;;;;4.10;72.47;101815.41;4923510;29;20226;-78
2023/12/19 05:58:34;;;;;;;19.27;9.67;;;;;;;4.17;72.03;101823.84;4913494;29;20650;-78
2023/12/19 06:01:02;;;;;;;18.03;9.73;;;;;;;4.19;72.18;101808.00;4913644;29;20271;-77
2023/12/19 06:03:30;;;;;;;17.37;9.47;;;;;;;4.24;72.08;101800.75;4921731;29;20219;-78
2023/12/19 06:05:58;;;;;;;17.67;9.27;;;;;;;4.15;72.24;101807.28;4903246;29;20219;-78
2023/12/19 06:08:27;;;;;;;17.33;9.00;;;;;;;4.08;72.28;101805.91;4927507;29;20725;-79
2023/12/19 06:10:55;;;;;;;16.00;8.00;;;;;;;4.08;72.68;101803.28;4929559;29;20571;-77
2023/12/19 06:13:29;;;;;;;16.77;8.60;;;;;;;4.14;72.75;101814.31;4929985;29;20214;-78
2023/12/19 06:15:57;;;;;;;17.40;8.63;;;;;;;4.18;72.44;101801.91;4930058;29;20211;-77
2023/12/19 06:18:24;;;;;;;16.93;9.50;;;;;;;4.15;72.77;101787.13;4934070;29;20635;-77
2023/12/19 06:20:52;;;;;;;18.23;9.40;;;;;;;4.13;72.82;101775.03;4925511;29;20755;-77
2023/12/19 06:23:20;;;;;;;17.73;8.57;;;;;;;4.09;72.74;101766.44;4928255;29;21019;-77
2023/12/19 06:25:50;;;;;;;17.43;8.87;;;;;;;4.19;72.74;101772.09;4923175;29;20248;-77
2023/12/19 06:28:18;;;;;;;18.40;8.83;;;;;;;4.18;72.57;101772.16;4928848;29;20270;-78
2023/12/19 06:30:47;;;;;;;16.77;8.80;;;;;;;4.12;72.50;101766.31;4925718;29;20625;-77
2023/12/19 06:33:14;;;;;;;17.60;8.23;;;;;;;4.07;72.57;101752.53;4916590;29;20287;-76
2023/12/19 06:35:45;;;;;;;17.80;8.73;;;;;;;4.07;72.66;101730.69;4926921;29;20329;-77
2023/12/19 06:38:12;;;;;;;16.07;8.50;;;;;;;4.12;72.95;101729.56;4923581;29;20244;-77
2023/12/19 06:40:40;;;;;;;19.63;9.33;;;;;;;4.07;73.32;101726.28;4930472;29;20213;-77
2023/12/19 06:43:11;;;;;;;16.83;8.80;;;;;;;4.09;73.50;101724.44;4930332;29;20208;-77
2023/12/19 06:45:39;;;;;;;16.60;8.53;;;;;;;4.15;73.43;101724.13;4930647;29;20258;-68
2023/12/19 06:48:07;;;;;;;17.50;8.97;;;;;;;4.14;73.20;101726.81;4918016;29;20290;-67
2023/12/19 06:50:35;;;;;;;17.50;8.63;;;;;;;4.21;73.32;101735.28;4917241;29;20212;-69
2023/12/19 06:53:03;;;;;;;17.33;8.57;;;;;;;4.26;73.23;101728.00;4917720;29;20240;-68
2023/12/19 06:55:31;;;;;;;20.67;9.87;;;;;;;4.32;72.97;101733.78;4916758;29;20744;-68
2023/12/19 06:57:59;;;;;;;18.67;9.43;;;;;;;4.29;72.83;101717.34;4917334;29;20303;-66
2023/12/19 07:00:29;;;;;;;17.87;8.63;;;;;;;4.19;73.00;101722.22;4917863;29;20222;-69
2023/12/19 07:02:57;;;;;;;15.73;8.73;;;;;;;4.12;73.29;101726.94;4916510;29;20224;-68
2023/12/19 07:06:30;;;;;;;17.63;8.90;;;;;;;4.14;73.52;101726.81;4928479;23;20331;-73
2023/12/19 07:10:40;;;;;;;15.47;8.27;;;;;;;4.16;73.28;101715.34;4830427;29;20253;-76
2023/12/19 07:18:23;;;;;;;19.80;8.90;;;;;;;4.25;73.56;101690.38;4783166;29;20218;-74
2023/12/19 18:48:41;;;;;;;9.40;4.80;;;;;;;6.49;85.19;100895.31;4673932;30;20213;-74
2023/12/19 19:37:34;;;;;;;7.30;3.87;;;;;;;7.26;81.89;100828.00;4669613;30;21095;-70
2023/12/19 19:47:49;;;;;;;5.53;2.97;;;;;;;7.37;81.43;100842.03;4716752;30;20621;-70
2023/12/19 19:55:02;;;;;;;5.80;2.57;;;;;;;7.33;81.29;100829.19;4668249;30;20314;-70
2023/12/19 19:58:21;;;;;;;6.57;2.77;;;;;;;7.44;81.10;100845.88;4643083;30;20568;-69
2023/12/19 20:02:17;;;;;;;5.50;2.53;;;;;;;7.48;80.56;100847.31;4756118;30;20235;-69
2023/12/19 20:39:08;;;;;;;6.60;2.93;;;;;;;7.73;79.56;100819.84;4810652;29;20220;-69
2023/12/19 20:46:09;;;;;;;7.40;3.60;;;;;;;7.68;79.74;100810.59;4752364;30;20228;-68
2023/12/19 21:54:06;;;;;;;7.77;3.57;;;;;;;7.34;88.24;100702.44;4598155;31;20243;-75
